Time;durP1;ratioP1;P1;durP2;ratioP2;P2;SDS_P1;SDS_P2;PMS_P1;PMS_P2;Temp;Humidity;BMP_temperature;BMP_pressure;BME280_temperature;BME280_humidity;BME280_pressure;Samples;Min_cycle;Max_cycle;Signal;HPM_P1;HPM_P2
2022/04/02 00:00:35;;;;;;;;;18.00;16.50;;;;;;;;5102606;27;45278;-74
2022/04/02 00:03:01;;;;;;;;;16.00;16.00;;;;;;;;5102601;27;45209;-75
2022/04/02 00:05:27;;;;;;;;;15.75;15.50;;;;;;;;5101263;27;45144;-76
2022/04/02 00:07:52;;;;;;;;;19.75;16.00;;;;;;;;5100842;27;47010;-75
2022/04/02 00:10:17;;;;;;;;;17.50;17.50;;;;;;;;5102055;27;45471;-74
2022/04/02 00:12:43;;;;;;;;;21.75;21.25;;;;;;;;5100976;27;45352;-74
2022/04/02 00:15:09;;;;;;;;;17.00;16.00;;;;;;;;5107499;27;45356;-75
2022/04/02 00:17:34;;;;;;;;;18.25;15.75;;;;;;;;5122766;27;45516;-74
2022/04/02 00:19:59;;;;;;;;;20.25;18.50;;;;;;;;5122773;27;45270;-75
2022/04/02 00:22:25;;;;;;;;;20.75;19.00;;;;;;;;5122735;27;45325;-74
2022/04/02 00:24:50;;;;;;;;;22.00;21.75;;;;;;;;5122720;27;45266;-74
2022/04/02 00:27:15;;;;;;;;;20.50;18.50;;;;;;;;5120149;27;45888;-74
2022/04/02 00:29:41;;;;;;;;;24.00;20.00;;;;;;;;5122384;27;45461;-75
2022/04/02 00:32:06;;;;;;;;;21.00;21.00;;;;;;;;5122792;27;45294;-74
2022/04/02 00:34:32;;;;;;;;;21.00;18.75;;;;;;;;5122694;27;45318;-74
2022/04/02 00:36:57;;;;;;;;;19.00;18.00;;;;;;;;5122592;27;45488;-74
2022/04/02 00:39:22;;;;;;;;;23.75;19.75;;;;;;;;5122295;27;45440;-74
2022/04/02 00:41:47;;;;;;;;;18.50;18.25;;;;;;;;5122567;27;45380;-75
2022/04/02 00:44:13;;;;;;;;;17.00;15.25;;;;;;;;5122711;27;45190;-75
2022/04/02 00:46:42;;;;;;;;;17.00;17.00;;;;;;;;5122408;27;45164;-74
2022/04/02 00:49:09;;;;;;;;;19.25;17.75;;;;;;;;5122256;27;45350;-75
2022/04/02 00:51:36;;;;;;;;;19.75;19.75;;;;;;;;5122224;27;45365;-75
2022/04/02 00:54:02;;;;;;;;;23.25;19.75;;;;;;;;5122414;27;45287;-75
2022/04/02 00:56:27;;;;;;;;;17.50;17.25;;;;;;;;5122047;27;45205;-74
2022/04/02 00:58:52;;;;;;;;;15.00;14.75;;;;;;;;5122230;27;46131;-75
2022/04/02 01:01:18;;;;;;;;;16.75;15.50;;;;;;;;5120823;27;45284;-75
2022/04/02 01:03:43;;;;;;;;;16.25;13.00;;;;;;;;5120988;27;45494;-75
2022/04/02 01:06:10;;;;;;;;;18.50;14.50;;;;;;;;5122094;27;45221;-75
2022/04/02 01:08:35;;;;;;;;;18.00;17.25;;;;;;;;5121969;27;45177;-74
2022/04/02 01:11:01;;;;;;;;;18.75;18.50;;;;;;;;5121753;27;45195;-75
2022/04/02 01:13:27;;;;;;;;;18.50;15.50;;;;;;;;5122250;27;45449;-75
2022/04/02 01:15:53;;;;;;;;;19.75;16.25;;;;;;;;5110349;27;45491;-75
2022/04/02 01:18:18;;;;;;;;;19.75;18.75;;;;;;;;5101232;27;45443;-74
2022/04/02 01:20:43;;;;;;;;;14.25;13.00;;;;;;;;5101360;27;45352;-74
2022/04/02 01:23:08;;;;;;;;;20.00;19.50;;;;;;;;5101348;27;45221;-75
2022/04/02 01:25:35;;;;;;;;;19.00;17.75;;;;;;;;5100909;27;45286;-74
2022/04/02 01:28:01;;;;;;;;;17.50;14.25;;;;;;;;5101151;27;46210;-75
2022/04/02 01:30:27;;;;;;;;;10.25;9.50;;;;;;;;5100716;27;45233;-75
2022/04/02 01:32:53;;;;;;;;;11.50;11.50;;;;;;;;5101193;27;45435;-75
2022/04/02 01:35:21;;;;;;;;;14.00;13.50;;;;;;;;5099793;27;45987;-75
2022/04/02 01:37:46;;;;;;;;;13.75;12.50;;;;;;;;5100742;27;45385;-75
2022/04/02 01:40:11;;;;;;;;;12.75;12.75;;;;;;;;5100821;27;45218;-76
2022/04/02 01:42:36;;;;;;;;;12.25;12.25;;;;;;;;5101189;27;45414;-75
2022/04/02 01:45:03;;;;;;;;;17.00;15.75;;;;;;;;5099550;27;45906;-74
2022/04/02 01:47:28;;;;;;;;;13.75;13.25;;;;;;;;5099461;27;48109;-75
2022/04/02 01:49:54;;;;;;;;;10.00;8.25;;;;;;;;5100839;27;45301;-75
2022/04/02 01:52:19;;;;;;;;;13.00;12.00;;;;;;;;5099601;27;45293;-75
2022/04/02 01:54:45;;;;;;;;;11.25;10.25;;;;;;;;5099280;27;47390;-74
2022/04/02 01:57:11;;;;;;;;;12.25;9.00;;;;;;;;5100717;27;46199;-75
2022/04/02 01:59:38;;;;;;;;;11.75;10.00;;;;;;;;5099313;27;45306;-75
2022/04/02 02:02:03;;;;;;;;;9.00;9.00;;;;;;;;5099480;27;45279;-75
2022/04/02 02:04:29;;;;;;;;;13.00;12.00;;;;;;;;5099211;27;46226;-74
2022/04/02 02:06:54;;;;;;;;;10.25;10.25;;;;;;;;5100464;27;46040;-75
2022/04/02 02:09:19;;;;;;;;;8.75;8.75;;;;;;;;5100492;27;45198;-74
2022/04/02 02:11:45;;;;;;;;;10.75;9.00;;;;;;;;5099464;27;45196;-74
2022/04/02 02:14:10;;;;;;;;;6.75;6.00;;;;;;;;5100639;27;45316;-74
2022/04/02 02:16:35;;;;;;;;;7.00;7.00;;;;;;;;5116407;27;46993;-74
2022/04/02 02:19:01;;;;;;;;;7.75;7.00;;;;;;;;5121351;27;45199;-74
2022/04/02 02:21:26;;;;;;;;;3.00;3.00;;;;;;;;5119805;27;45270;-75
2022/04/02 02:23:52;;;;;;;;;10.50;7.00;;;;;;;;5121140;27;45245;-75
2022/04/02 02:26:17;;;;;;;;;11.75;8.00;;;;;;;;5120660;27;45304;-75
2022/04/02 02:28:42;;;;;;;;;11.00;9.00;;;;;;;;5120977;27;45327;-74
2022/04/02 02:31:07;;;;;;;;;8.50;8.00;;;;;;;;5120816;27;46846;-75
2022/04/02 02:36:17;;;;;;;;;8.25;8.25;;;;;;;;5120722;27;45692;-75
2022/04/02 02:38:43;;;;;;;;;8.00;6.75;;;;;;;;5119276;27;45391;-75
2022/04/02 02:41:10;;;;;;;;;6.50;6.50;;;;;;;;5119338;27;45895;-75
2022/04/02 02:43:35;;;;;;;;;7.75;7.75;;;;;;;;5120708;27;45348;-74
2022/04/02 02:46:00;;;;;;;;;8.50;8.00;;;;;;;;5120571;27;45282;-75
2022/04/02 02:48:25;;;;;;;;;4.00;4.00;;;;;;;;5119506;27;45291;-74
2022/04/02 02:50:51;;;;;;;;;8.50;7.75;;;;;;;;5122667;27;45265;-75
2022/04/02 02:53:16;;;;;;;;;7.75;6.00;;;;;;;;5124123;27;45567;-75
2022/04/02 02:55:41;;;;;;;;;8.25;8.25;;;;;;;;5124041;27;46038;-75
2022/04/02 02:58:08;;;;;;;;;8.75;7.50;;;;;;;;5122939;27;45644;-74
2022/04/02 03:00:33;;;;;;;;;8.50;8.00;;;;;;;;5122957;27;45203;-74
2022/04/02 03:02:58;;;;;;;;;7.25;7.25;;;;;;;;5124052;27;45534;-75
2022/04/02 03:05:23;;;;;;;;;6.75;6.75;;;;;;;;5122517;27;47438;-74
2022/04/02 03:07:49;;;;;;;;;7.75;7.75;;;;;;;;5123953;27;45363;-75
2022/04/02 03:10:15;;;;;;;;;6.25;5.00;;;;;;;;5122579;27;45237;-75
2022/04/02 03:12:41;;;;;;;;;7.00;7.00;;;;;;;;5122774;27;46787;-75
2022/04/02 03:15:06;;;;;;;;;7.75;7.75;;;;;;;;5118881;27;46430;-75
2022/04/02 03:17:31;;;;;;;;;5.00;1.75;;;;;;;;5103374;27;45318;-75
2022/04/02 03:19:57;;;;;;;;;7.75;6.00;;;;;;;;5103528;27;45337;-75
2022/04/02 03:22:23;;;;;;;;;8.00;7.50;;;;;;;;5103060;27;45502;-75
2022/04/02 03:24:48;;;;;;;;;5.50;5.50;;;;;;;;5102822;27;45514;-75
2022/04/02 03:27:13;;;;;;;;;5.00;4.25;;;;;;;;5103264;27;45288;-75
2022/04/02 03:29:39;;;;;;;;;11.00;9.50;;;;;;;;5102828;27;45297;-75
2022/04/02 03:32:05;;;;;;;;;7.00;5.75;;;;;;;;5101698;27;45970;-75
2022/04/02 03:34:30;;;;;;;;;9.25;8.00;;;;;;;;5102964;27;46284;-75
2022/04/02 03:36:55;;;;;;;;;7.25;7.25;;;;;;;;5102994;27;45283;-75
2022/04/02 03:39:20;;;;;;;;;12.25;7.50;;;;;;;;5102944;27;45275;-75
2022/04/02 03:41:45;;;;;;;;;8.00;8.00;;;;;;;;5102916;27;45445;-75
2022/04/02 03:44:11;;;;;;;;;8.50;8.25;;;;;;;;5102855;27;45254;-74
2022/04/02 03:49:21;;;;;;;;;8.50;8.50;;;;;;;;5102890;27;45467;-76
2022/04/02 03:51:46;;;;;;;;;12.00;7.50;;;;;;;;5101158;27;45927;-74
2022/04/02 03:54:11;;;;;;;;;8.00;8.00;;;;;;;;5102418;27;46187;-76
2022/04/02 03:56:37;;;;;;;;;11.00;9.00;;;;;;;;5102709;27;45152;-75
2022/04/02 03:59:03;;;;;;;;;9.00;7.75;;;;;;;;5102838;27;45119;-75
2022/04/02 04:01:28;;;;;;;;;8.75;8.75;;;;;;;;5102513;27;45148;-75
2022/04/02 04:03:53;;;;;;;;;11.00;11.00;;;;;;;;5102418;27;45298;-75
2022/04/02 04:06:19;;;;;;;;;15.00;12.25;;;;;;;;5102445;27;45347;-75
2022/04/02 04:08:44;;;;;;;;;12.25;12.00;;;;;;;;5101100;27;45164;-75
2022/04/02 04:11:10;;;;;;;;;11.75;11.00;;;;;;;;5102287;27;45274;-75
2022/04/02 04:13:36;;;;;;;;;11.00;11.00;;;;;;;;5100935;27;47188;-75
2022/04/02 04:16:01;;;;;;;;;10.25;8.00;;;;;;;;5114587;27;45289;-75
2022/04/02 04:18:27;;;;;;;;;10.50;8.75;;;;;;;;5123215;27;45241;-75
2022/04/02 04:20:53;;;;;;;;;10.25;10.25;;;;;;;;5122814;27;45351;-75
2022/04/02 04:23:18;;;;;;;;;14.50;14.50;;;;;;;;5121129;27;48120;-75
2022/04/02 04:25:43;;;;;;;;;11.00;11.00;;;;;;;;5122610;27;45441;-75
2022/04/02 04:28:09;;;;;;;;;11.00;9.75;;;;;;;;5121615;27;45350;-75
2022/04/02 04:30:34;;;;;;;;;11.00;11.00;;;;;;;;5121197;27;47169;-75
2022/04/02 04:32:59;;;;;;;;;12.00;12.00;;;;;;;;5122642;27;45308;-76
2022/04/02 04:35:25;;;;;;;;;10.50;8.50;;;;;;;;5122817;27;45284;-76
2022/04/02 04:37:51;;;;;;;;;10.75;10.25;;;;;;;;5122789;27;45247;-75
2022/04/02 04:40:17;;;;;;;;;9.25;8.75;;;;;;;;5122480;27;45655;-76
2022/04/02 04:42:42;;;;;;;;;7.50;7.25;;;;;;;;5122495;27;45219;-77
2022/04/02 04:45:07;;;;;;;;;10.50;10.25;;;;;;;;5121092;27;46177;-75
2022/04/02 04:47:32;;;;;;;;;8.25;8.25;;;;;;;;5121350;27;45716;-76
2022/04/02 04:49:58;;;;;;;;;12.25;11.50;;;;;;;;5122481;27;45217;-77
2022/04/02 04:52:23;;;;;;;;;15.00;10.75;;;;;;;;5122212;27;45201;-76
2022/04/02 04:54:48;;;;;;;;;12.25;12.25;;;;;;;;5122380;27;45277;-76
2022/04/02 04:57:13;;;;;;;;;10.75;10.00;;;;;;;;5121217;27;45259;-76
2022/04/02 04:59:38;;;;;;;;;8.00;8.00;;;;;;;;5122282;27;45205;-75
2022/04/02 05:02:04;;;;;;;;;10.50;10.50;;;;;;;;5122224;27;45343;-76
2022/04/02 05:04:30;;;;;;;;;11.25;10.50;;;;;;;;5122274;27;45269;-76
2022/04/02 05:06:55;;;;;;;;;11.25;10.25;;;;;;;;5122268;27;45159;-76
2022/04/02 05:09:21;;;;;;;;;10.75;9.25;;;;;;;;5120528;27;47255;-75
2022/04/02 05:11:46;;;;;;;;;11.25;11.25;;;;;;;;5092639;27;45587;-76
2022/04/02 05:14:13;;;;;;;;;11.00;10.75;;;;;;;;5098365;27;45320;-75
2022/04/02 05:16:38;;;;;;;;;11.00;9.50;;;;;;;;5099249;27;45317;-77
2022/04/02 05:19:03;;;;;;;;;13.75;8.25;;;;;;;;5102041;27;45335;-76
2022/04/02 05:21:29;;;;;;;;;10.25;10.25;;;;;;;;5105432;27;45397;-76
2022/04/02 05:23:54;;;;;;;;;12.25;11.25;;;;;;;;5111681;27;45380;-76
2022/04/02 05:26:19;;;;;;;;;12.50;11.00;;;;;;;;5108713;27;45288;-78
2022/04/02 05:28:45;;;;;;;;;7.25;7.25;;;;;;;;5107816;27;45346;-77
2022/04/02 05:31:10;;;;;;;;;11.00;10.25;;;;;;;;5102022;27;47158;-79
2022/04/02 05:33:36;;;;;;;;;13.50;12.25;;;;;;;;5104818;27;45251;-77
2022/04/02 05:36:01;;;;;;;;;12.00;12.00;;;;;;;;5105542;27;45219;-78
2022/04/02 05:38:27;;;;;;;;;10.00;10.00;;;;;;;;5101113;27;45858;-77
2022/04/02 05:40:53;;;;;;;;;13.50;11.00;;;;;;;;5107769;27;47358;-77
2022/04/02 05:43:18;;;;;;;;;10.75;9.25;;;;;;;;5108721;27;45232;-77
2022/04/02 05:45:43;;;;;;;;;11.00;11.00;;;;;;;;5096360;27;45224;-77
2022/04/02 05:48:08;;;;;;;;;11.00;11.00;;;;;;;;5080130;27;45271;-78
2022/04/02 05:50:33;;;;;;;;;14.25;11.00;;;;;;;;5079543;28;48426;-75
2022/04/02 05:53:00;;;;;;;;;10.50;10.50;;;;;;;;5082787;27;45350;-76
2022/04/02 05:55:25;;;;;;;;;11.00;10.50;;;;;;;;5081230;27;45487;-75
2022/04/02 05:57:50;;;;;;;;;13.00;10.75;;;;;;;;5079015;28;47192;-76
2022/04/02 06:00:17;;;;;;;;;6.25;6.00;;;;;;;;5080259;27;46264;-75
2022/04/02 06:02:43;;;;;;;;;10.50;10.50;;;;;;;;5079169;28;45371;-75
2022/04/02 06:05:09;;;;;;;;;8.75;8.75;;;;;;;;5080279;27;45291;-76
2022/04/02 06:07:35;;;;;;;;;12.50;12.50;;;;;;;;5080956;27;45329;-76
2022/04/02 06:10:02;;;;;;;;;14.50;14.50;;;;;;;;5084509;27;46469;-75
2022/04/02 06:12:28;;;;;;;;;12.75;10.75;;;;;;;;5095956;27;45276;-75
2022/04/02 06:14:53;;;;;;;;;11.25;11.25;;;;;;;;5104408;27;45209;-76
2022/04/02 06:17:18;;;;;;;;;10.75;10.00;;;;;;;;5107275;27;45193;-76
2022/04/02 06:19:44;;;;;;;;;13.00;13.00;;;;;;;;5085560;27;48442;-77
2022/04/02 06:22:09;;;;;;;;;10.75;8.50;;;;;;;;5094338;27;45414;-78
2022/04/02 06:24:34;;;;;;;;;10.75;9.50;;;;;;;;5094051;27;45385;-79
2022/04/02 06:27:00;;;;;;;;;11.50;10.00;;;;;;;;5092507;27;46083;-76
2022/04/02 06:29:25;;;;;;;;;11.25;11.00;;;;;;;;5092284;27;47441;-76
2022/04/02 06:31:50;;;;;;;;;11.75;10.50;;;;;;;;5103285;27;45213;-74
2022/04/02 06:34:15;;;;;;;;;8.00;8.00;;;;;;;;5103340;27;45198;-74
2022/04/02 06:36:41;;;;;;;;;8.25;8.25;;;;;;;;5084180;27;46320;-74
2022/04/02 06:39:06;;;;;;;;;12.00;8.75;;;;;;;;5083243;28;45234;-73
2022/04/02 06:41:31;;;;;;;;;13.25;11.75;;;;;;;;5082128;28;45274;-74
2022/04/02 06:43:56;;;;;;;;;13.50;13.25;;;;;;;;5082030;28;45439;-74
2022/04/02 06:46:21;;;;;;;;;12.00;11.75;;;;;;;;5082146;28;46029;-73
2022/04/02 06:48:47;;;;;;;;;10.50;10.50;;;;;;;;5081851;28;48046;-74
2022/04/02 06:51:12;;;;;;;;;14.00;12.00;;;;;;;;5081868;28;45259;-74
2022/04/02 06:53:37;;;;;;;;;14.00;12.25;;;;;;;;5082559;27;45407;-74
2022/04/02 06:56:03;;;;;;;;;13.75;13.00;;;;;;;;5083014;28;45409;-74
2022/04/02 06:58:30;;;;;;;;;12.00;12.00;;;;;;;;5083210;27;45232;-74
2022/04/02 07:00:56;;;;;;;;;7.00;7.00;;;;;;;;5083121;28;45310;-74
2022/04/02 07:03:22;;;;;;;;;11.50;11.50;;;;;;;;5080246;28;45576;-73
2022/04/02 07:05:47;;;;;;;;;7.00;5.00;;;;;;;;5081605;27;45602;-74
2022/04/02 07:08:13;;;;;;;;;10.25;9.25;;;;;;;;5081312;27;46446;-73
2022/04/02 07:10:38;;;;;;;;;9.50;7.25;;;;;;;;5080005;28;45303;-74
2022/04/02 07:13:03;;;;;;;;;12.00;11.75;;;;;;;;5080497;28;45291;-73
2022/04/02 07:15:28;;;;;;;;;8.25;7.75;;;;;;;;5097794;27;45272;-74
2022/04/02 07:17:53;;;;;;;;;11.00;11.00;;;;;;;;5123375;27;45332;-74
2022/04/02 07:20:19;;;;;;;;;8.25;7.50;;;;;;;;5122449;27;45257;-74
2022/04/02 07:22:44;;;;;;;;;12.75;11.50;;;;;;;;5124050;27;45272;-74
2022/04/02 07:25:12;;;;;;;;;9.25;9.25;;;;;;;;5123418;27;45495;-73
2022/04/02 07:27:38;;;;;;;;;8.50;8.50;;;;;;;;5123837;27;45616;-74
2022/04/02 07:30:04;;;;;;;;;12.75;11.50;;;;;;;;5114841;27;45303;-74
2022/04/02 07:32:30;;;;;;;;;11.75;11.75;;;;;;;;5101477;27;45482;-74
2022/04/02 07:34:55;;;;;;;;;9.00;8.00;;;;;;;;5101224;27;45374;-74
2022/04/02 07:37:30;;;;;;;;;9.00;8.00;;;;;;;;5100907;27;46349;-74
2022/04/02 07:39:58;;;;;;;;;11.25;11.25;;;;;;;;5099726;27;45399;-75
2022/04/02 07:42:26;;;;;;;;;7.75;7.50;;;;;;;;5101420;27;45293;-75
2022/04/02 07:45:03;;;;;;;;;9.75;9.00;;;;;;;;5101159;27;45224;-75
2022/04/02 07:47:29;;;;;;;;;10.25;7.75;;;;;;;;5099435;27;45403;-74
2022/04/02 07:50:01;;;;;;;;;6.75;6.75;;;;;;;;5101038;27;45279;-75
2022/04/02 07:52:26;;;;;;;;;11.75;9.00;;;;;;;;5101119;27;45380;-74
2022/04/02 07:54:54;;;;;;;;;9.00;8.00;;;;;;;;5100885;27;45651;-74
2022/04/02 07:57:21;;;;;;;;;9.25;8.50;;;;;;;;5098167;27;46273;-75
2022/04/02 07:59:50;;;;;;;;;13.25;11.00;;;;;;;;5100896;27;45397;-74
2022/04/02 08:05:02;;;;;;;;;11.75;9.00;;;;;;;;5102037;27;45319;-74
2022/04/02 08:07:28;;;;;;;;;12.00;8.00;;;;;;;;5101655;27;45925;-74
2022/04/02 08:09:54;;;;;;;;;11.50;10.25;;;;;;;;5101055;27;45474;-74
2022/04/02 08:12:19;;;;;;;;;10.50;8.75;;;;;;;;5099514;27;45352;-74
2022/04/02 08:14:47;;;;;;;;;10.50;10.50;;;;;;;;5103884;27;45453;-74
2022/04/02 08:17:12;;;;;;;;;9.75;8.75;;;;;;;;5121488;27;47275;-74
2022/04/02 08:19:38;;;;;;;;;9.00;8.25;;;;;;;;5122854;27;45248;-75
2022/04/02 08:22:04;;;;;;;;;10.25;10.25;;;;;;;;5122655;27;45308;-76
2022/04/02 08:24:29;;;;;;;;;7.75;7.75;;;;;;;;5081694;27;46128;-75
2022/04/02 08:26:57;;;;;;;;;12.00;8.50;;;;;;;;5099738;27;47690;-75
2022/04/02 08:29:34;;;;;;;;;9.75;8.50;;;;;;;;5089823;27;45494;-75
2022/04/02 08:32:16;;;;;;;;;10.00;10.00;;;;;;;;5081414;27;45465;-75
2022/04/02 08:34:51;;;;;;;;;8.75;8.25;;;;;;;;5080376;27;45399;-74
2022/04/02 08:37:38;;;;;;;;;10.00;10.00;;;;;;;;5079679;28;47396;-74
2022/04/02 08:40:22;;;;;;;;;8.50;7.00;;;;;;;;5079806;28;45328;-74
2022/04/02 08:42:53;;;;;;;;;8.25;8.00;;;;;;;;5079785;28;45355;-74
2022/04/02 08:45:26;;;;;;;;;5.25;5.25;;;;;;;;5080522;27;45542;-75
2022/04/02 08:48:10;;;;;;;;;9.25;8.00;;;;;;;;5078976;28;45552;-74
2022/04/02 08:50:41;;;;;;;;;8.75;8.50;;;;;;;;5080837;27;45361;-75
2022/04/02 08:53:17;;;;;;;;;2.00;2.00;;;;;;;;5081473;27;45408;-75
2022/04/02 08:55:45;;;;;;;;;9.00;8.25;;;;;;;;5080685;27;45462;-74
2022/04/02 08:58:19;;;;;;;;;7.25;7.00;;;;;;;;5080756;27;45316;-74
2022/04/02 09:00:50;;;;;;;;;9.25;7.25;;;;;;;;5080793;27;45324;-75
2022/04/02 09:03:16;;;;;;;;;9.50;8.75;;;;;;;;5080720;27;45406;-74
2022/04/02 09:05:53;;;;;;;;;8.50;8.00;;;;;;;;5080307;27;45468;-75
2022/04/02 09:08:29;;;;;;;;;8.50;8.50;;;;;;;;5080424;27;46328;-74
2022/04/02 09:10:57;;;;;;;;;11.00;9.00;;;;;;;;5080528;28;45419;-75
2022/04/02 09:13:34;;;;;;;;;5.75;5.75;;;;;;;;5079273;28;45330;-74
2022/04/02 09:16:07;;;;;;;;;10.25;9.00;;;;;;;;5078935;28;46711;-74
2022/04/02 09:18:32;;;;;;;;;9.00;9.00;;;;;;;;5078968;27;48102;-73
2022/04/02 09:21:00;;;;;;;;;7.50;7.00;;;;;;;;5085629;27;45464;-75
2022/04/02 09:23:38;;;;;;;;;5.75;5.75;;;;;;;;5089626;27;45465;-75
2022/04/02 09:26:04;;;;;;;;;11.00;9.00;;;;;;;;5091775;27;45456;-75
2022/04/02 09:28:35;;;;;;;;;9.25;8.75;;;;;;;;5098965;27;47199;-74
2022/04/02 09:31:10;;;;;;;;;8.00;6.50;;;;;;;;5100484;27;45369;-74
2022/04/02 09:33:44;;;;;;;;;8.25;6.50;;;;;;;;5100629;27;45171;-75
2022/04/02 09:36:18;;;;;;;;;5.75;5.75;;;;;;;;5100660;27;45312;-74
2022/04/02 09:39:00;;;;;;;;;8.00;7.50;;;;;;;;5098486;27;46524;-75
2022/04/02 09:41:32;;;;;;;;;8.00;8.00;;;;;;;;5100412;27;45334;-74
2022/04/02 09:44:00;;;;;;;;;8.00;5.50;;;;;;;;5100514;27;45303;-74
2022/04/02 09:46:34;;;;;;;;;9.25;9.00;;;;;;;;5092398;27;45409;-74
2022/04/02 09:49:00;;;;;;;;;6.50;6.50;;;;;;;;5089540;27;45453;-74
2022/04/02 09:51:36;;;;;;;;;10.00;8.33;;;;;;;;5086695;27;45319;-73
2022/04/02 09:54:03;;;;;;;;;4.25;4.25;;;;;;;;5094271;27;45252;-74
2022/04/02 09:56:39;;;;;;;;;9.50;6.75;;;;;;;;5099324;27;46217;-73
2022/04/02 09:59:24;;;;;;;;;4.33;4.33;;;;;;;;5077765;27;47114;-73
2022/04/02 10:02:03;;;;;;;;;6.67;6.67;;;;;;;;5079445;28;45469;-73
2022/04/02 10:04:29;;;;;;;;;5.00;5.00;;;;;;;;5079791;28;45305;-74
2022/04/02 10:06:56;;;;;;;;;5.75;5.75;;;;;;;;5079123;28;45394;-75
2022/04/02 10:09:22;;;;;;;;;5.00;5.00;;;;;;;;5090525;27;48606;-74
2022/04/02 10:11:52;;;;;;;;;11.50;9.75;;;;;;;;5079938;28;45257;-75
2022/04/02 10:14:19;;;;;;;;;2.00;2.00;;;;;;;;5080204;27;45333;-74
2022/04/02 10:16:48;;;;;;;;;6.00;6.00;;;;;;;;5115691;27;45783;-74
2022/04/02 10:19:14;;;;;;;;;6.00;4.00;;;;;;;;5119430;27;48131;-75
2022/04/02 10:21:39;;;;;;;;;4.33;4.33;;;;;;;;5119600;27;45223;-75
2022/04/02 10:24:18;;;;;;;;;5.00;5.00;;;;;;;;5120936;27;45237;-75
2022/04/02 10:26:47;;;;;;;;;6.00;6.00;;;;;;;;5120881;27;45321;-76
2022/04/02 10:29:13;;;;;;;;;5.33;5.00;;;;;;;;5119344;27;47114;-74
2022/04/02 10:31:45;;;;;;;;;6.00;5.00;;;;;;;;5120346;27;45248;-74
2022/04/02 10:34:16;;;;;;;;;5.00;4.00;;;;;;;;5119745;27;45293;-75
2022/04/02 10:36:49;;;;;;;;;6.33;6.33;;;;;;;;5094199;27;45424;-75
2022/04/02 10:39:15;;;;;;;;;4.67;4.67;;;;;;;;5099842;27;45407;-75
2022/04/02 10:41:44;;;;;;;;;5.33;5.33;;;;;;;;5100332;27;45253;-75
2022/04/02 10:44:12;;;;;;;;;5.00;5.00;;;;;;;;5100206;27;45303;-76
2022/04/02 10:46:44;;;;;;;;;1.67;1.67;;;;;;;;5093292;27;45541;-75
2022/04/02 10:49:12;;;;;;;;;7.00;6.00;;;;;;;;5086905;27;47570;-74
2022/04/02 10:51:40;;;;;;;;;4.33;4.33;;;;;;;;5099063;27;45351;-75
2022/04/02 10:54:10;;;;;;;;;6.67;6.00;;;;;;;;5086454;27;45393;-75
2022/04/02 10:56:42;;;;;;;;;4.00;4.00;;;;;;;;5079165;28;45381;-75
2022/04/02 10:59:08;;;;;;;;;4.00;4.00;;;;;;;;5079052;27;45283;-74
2022/04/02 11:01:34;;;;;;;;;7.00;5.00;;;;;;;;5081519;27;45385;-75
2022/04/02 11:04:04;;;;;;;;;6.67;6.67;;;;;;;;5081414;27;45324;-74
2022/04/02 11:06:49;;;;;;;;;6.00;6.00;;;;;;;;5086364;27;46157;-75
2022/04/02 11:09:40;;;;;;;;;11.00;11.00;;;;;;;;5078701;27;45623;-74
2022/04/02 11:12:07;;;;;;;;;13.50;13.50;;;;;;;;5089868;27;45419;-74
2022/04/02 11:14:40;;;;;;;;;6.67;6.00;;;;;;;;5101561;27;45375;-73
2022/04/02 11:17:06;;;;;;;;;10.67;10.33;;;;;;;;5087379;27;45349;-73
2022/04/02 11:19:56;;;;;;;;;9.33;7.00;;;;;;;;5102525;27;46209;-74
2022/04/02 11:22:28;;;;;;;;;6.00;4.33;;;;;;;;5102786;27;45233;-74
2022/04/02 11:25:01;;;;;;;;;4.33;4.33;;;;;;;;5102444;27;45243;-74
2022/04/02 11:27:27;;;;;;;;;10.67;8.33;;;;;;;;5101609;27;45453;-75
2022/04/02 11:29:53;;;;;;;;;7.33;6.00;;;;;;;;5101075;27;47441;-73
2022/04/02 11:32:25;;;;;;;;;7.00;5.00;;;;;;;;5102226;27;45302;-73
2022/04/02 11:34:51;;;;;;;;;6.67;5.67;;;;;;;;5089970;27;45375;-75
2022/04/02 11:37:19;;;;;;;;;7.33;7.00;;;;;;;;5093994;27;48027;-74
2022/04/02 11:39:48;;;;;;;;;5.33;5.33;;;;;;;;5091363;27;46494;-74
2022/04/02 11:42:14;;;;;;;;;8.00;8.00;;;;;;;;5093968;27;45460;-75
2022/04/02 11:44:47;;;;;;;;;9.33;7.00;;;;;;;;5080020;27;45388;-74
2022/04/02 11:47:14;;;;;;;;;5.00;5.00;;;;;;;;5080526;27;45594;-75
2022/04/02 11:49:40;;;;;;;;;6.00;6.00;;;;;;;;5084321;27;46140;-76
2022/04/02 11:52:09;;;;;;;;;6.00;6.00;;;;;;;;5079727;27;47621;-75
2022/04/02 11:54:39;;;;;;;;;7.00;7.00;;;;;;;;5098384;27;45359;-74
2022/04/02 11:57:05;;;;;;;;;6.00;5.00;;;;;;;;5102204;27;45391;-76
2022/04/02 11:59:33;;;;;;;;;5.00;5.00;;;;;;;;5095463;27;48281;-75
2022/04/02 12:01:58;;;;;;;;;7.00;6.00;;;;;;;;5079817;27;46396;-74
2022/04/02 12:04:24;;;;;;;;;5.00;4.00;;;;;;;;5091450;27;46512;-75
2022/04/02 12:06:51;;;;;;;;;7.00;7.00;;;;;;;;5091869;27;46633;-74
2022/04/02 12:09:21;;;;;;;;;8.67;8.67;;;;;;;;5090376;27;45447;-75
2022/04/02 12:11:49;;;;;;;;;7.67;6.00;;;;;;;;5089314;27;45336;-74
2022/04/02 12:14:27;;;;;;;;;5.67;5.67;;;;;;;;5095234;27;45398;-74
2022/04/02 12:16:57;;;;;;;;;8.00;8.00;;;;;;;;5096286;27;45582;-75
2022/04/02 12:19:31;;;;;;;;;7.00;6.33;;;;;;;;5090525;27;46433;-75
2022/04/02 12:21:57;;;;;;;;;9.00;8.00;;;;;;;;5091141;27;45712;-75
2022/04/02 12:24:24;;;;;;;;;7.67;7.67;;;;;;;;5087337;27;45503;-75
2022/04/02 12:26:49;;;;;;;;;10.33;10.33;;;;;;;;5090705;27;45751;-74
2022/04/02 12:29:17;;;;;;;;;9.67;6.67;;;;;;;;5090042;27;46300;-75
2022/04/02 12:31:48;;;;;;;;;14.00;11.33;;;;;;;;5089361;27;45558;-75
2022/04/02 12:34:20;;;;;;;;;10.00;9.00;;;;;;;;5086589;27;45383;-74
2022/04/02 12:36:45;;;;;;;;;8.00;8.00;;;;;;;;5080948;27;45772;-76
2022/04/02 12:39:11;;;;;;;;;12.67;12.33;;;;;;;;5086029;27;45321;-75
2022/04/02 12:41:47;;;;;;;;;7.33;7.33;;;;;;;;5086899;27;46405;-75
2022/04/02 12:44:12;;;;;;;;;7.33;7.00;;;;;;;;5088738;27;45460;-76
2022/04/02 12:46:37;;;;;;;;;7.33;7.33;;;;;;;;5084492;27;45389;-76
2022/04/02 12:49:03;;;;;;;;;5.33;5.33;;;;;;;;5089176;27;45420;-77
2022/04/02 12:51:28;;;;;;;;;7.33;7.00;;;;;;;;5089352;27;45200;-76
2022/04/02 12:54:01;;;;;;;;;8.00;8.00;;;;;;;;5102110;27;45365;-76
2022/04/02 12:56:27;;;;;;;;;6.00;6.00;;;;;;;;5087756;27;45617;-77
2022/04/02 12:58:54;;;;;;;;;9.00;9.00;;;;;;;;5100904;27;46100;-76
2022/04/02 13:01:19;;;;;;;;;9.33;9.00;;;;;;;;5090091;27;45244;-75
2022/04/02 13:03:44;;;;;;;;;8.00;8.00;;;;;;;;5080300;27;45298;-76
2022/04/02 13:06:22;;;;;;;;;11.67;10.00;;;;;;;;5082800;27;45181;-76
2022/04/02 13:09:04;;;;;;;;;7.00;7.00;;;;;;;;5089810;27;45718;-75
2022/04/02 13:11:48;;;;;;;;;9.33;9.00;;;;;;;;5080620;27;45258;-75
2022/04/02 13:14:20;;;;;;;;;14.00;9.33;;;;;;;;5086493;27;45552;-77
2022/04/02 13:16:47;;;;;;;;;8.33;7.00;;;;;;;;5099254;27;45382;-75
2022/04/02 13:22:14;;;;;;;;;5.33;5.33;;;;;;;;5080358;28;45293;-74
2022/04/02 13:24:45;;;;;;;;;7.00;6.67;;;;;;;;5086026;27;45301;-75
2022/04/02 13:27:32;;;;;;;;;9.67;8.00;;;;;;;;5094300;27;45967;-75
2022/04/02 13:30:06;;;;;;;;;6.00;6.00;;;;;;;;5088713;27;45464;-75
2022/04/02 13:32:44;;;;;;;;;7.67;7.67;;;;;;;;5080774;27;45229;-75
2022/04/02 13:35:22;;;;;;;;;19.00;17.25;;;;;;;;5098529;27;45341;-75
2022/04/02 13:37:57;;;;;;;;;17.67;14.00;;;;;;;;5097680;27;47448;-76
2022/04/02 13:40:24;;;;;;;;;9.67;9.33;;;;;;;;5080024;27;46366;-75
2022/04/02 13:42:55;;;;;;;;;10.33;9.00;;;;;;;;5079924;27;45309;-75
2022/04/02 13:45:23;;;;;;;;;8.67;8.00;;;;;;;;5079297;27;45421;-76
2022/04/02 13:47:55;;;;;;;;;9.00;9.00;;;;;;;;5078473;27;46633;-75
2022/04/02 13:50:20;;;;;;;;;14.33;12.00;;;;;;;;5078528;28;47439;-75
2022/04/02 13:52:51;;;;;;;;;12.33;11.00;;;;;;;;5078389;28;45337;-76
2022/04/02 13:55:17;;;;;;;;;9.33;9.33;;;;;;;;5079905;28;45344;-78
2022/04/02 13:57:48;;;;;;;;;9.00;9.00;;;;;;;;5079895;28;45432;-76
2022/04/02 14:00:14;;;;;;;;;7.00;6.33;;;;;;;;5079600;28;45642;-75
2022/04/02 14:02:40;;;;;;;;;16.00;13.67;;;;;;;;5093249;27;45260;-76
2022/04/02 14:05:09;;;;;;;;;10.00;10.00;;;;;;;;5095786;27;45661;-76
2022/04/02 14:07:37;;;;;;;;;10.00;10.00;;;;;;;;5087881;27;45407;-75
2022/04/02 14:10:08;;;;;;;;;12.33;9.67;;;;;;;;5088470;27;45400;-76
2022/04/02 14:12:41;;;;;;;;;13.33;12.00;;;;;;;;5087609;27;45554;-73
2022/04/02 14:15:09;;;;;;;;;13.00;12.00;;;;;;;;5087799;27;45289;-74
2022/04/02 14:17:39;;;;;;;;;10.00;10.00;;;;;;;;5089156;27;45340;-75
2022/04/02 14:20:06;;;;;;;;;15.00;15.00;;;;;;;;5079614;27;45255;-74
2022/04/02 14:22:38;;;;;;;;;15.67;12.67;;;;;;;;5079972;27;45301;-75
2022/04/02 14:25:17;;;;;;;;;10.00;10.00;;;;;;;;5079944;27;45313;-74
2022/04/02 14:27:49;;;;;;;;;8.67;8.67;;;;;;;;5078526;28;46312;-74
2022/04/02 14:30:31;;;;;;;;;11.67;11.67;;;;;;;;5078050;28;48348;-74
2022/04/02 14:33:18;;;;;;;;;10.00;9.00;;;;;;;;5084444;27;45247;-75
2022/04/02 14:35:59;;;;;;;;;7.67;7.33;;;;;;;;5100432;27;45401;-74
2022/04/02 14:38:37;;;;;;;;;10.00;9.00;;;;;;;;5099937;27;45367;-74
2022/04/02 14:41:02;;;;;;;;;9.00;9.00;;;;;;;;5100031;27;46036;-73
2022/04/02 14:43:27;;;;;;;;;7.33;7.33;;;;;;;;5098742;27;45759;-73
2022/04/02 14:46:22;;;;;;;;;12.00;10.00;;;;;;;;5100778;27;45187;-74